sensor_id;sensor_type;location;lat;lon;timestamp;temperature;humidity
8862;DHT22;4799;50.996;4.754;2023-12-04T00:00:37;2.00;99.90
8862;DHT22;4799;50.996;4.754;2023-12-04T00:03:03;2.00;99.90
8862;DHT22;4799;50.996;4.754;2023-12-04T00:05:29;2.10;99.90
8862;DHT22;4799;50.996;4.754;2023-12-04T00:07:55;2.10;99.90
8862;DHT22;4799;50.996;4.754;2023-12-04T00:10:21;2.10;99.90
8862;DHT22;4799;50.996;4.754;2023-12-04T00:12:47;2.10;99.90
8862;DHT22;4799;50.996;4.754;2023-12-04T00:15:12;2.10;99.90
8862;DHT22;4799;50.996;4.754;2023-12-04T00:17:38;2.10;99.90
8862;DHT22;4799;50.996;4.754;2023-12-04T00:20:09;2.10;99.90
8862;DHT22;4799;50.996;4.754;2023-12-04T00:22:35;2.10;99.90
8862;DHT22;4799;50.996;4.754;2023-12-04T00:25:03;2.10;99.90
8862;DHT22;4799;50.996;4.754;2023-12-04T00:27:29;2.10;99.90
8862;DHT22;4799;50.996;4.754;2023-12-04T00:29:55;2.10;99.90
8862;DHT22;4799;50.996;4.754;2023-12-04T00:32:21;2.10;99.90
8862;DHT22;4799;50.996;4.754;2023-12-04T00:34:47;2.10;99.90
8862;DHT22;4799;50.996;4.754;2023-12-04T00:37:12;2.10;99.90
8862;DHT22;4799;50.996;4.754;2023-12-04T00:39:38;2.10;99.90
8862;DHT22;4799;50.996;4.754;2023-12-04T00:42:04;2.10;99.90
8862;DHT22;4799;50.996;4.754;2023-12-04T00:44:30;2.10;99.90
8862;DHT22;4799;50.996;4.754;2023-12-04T00:46:56;2.00;99.90
8862;DHT22;4799;50.996;4.754;2023-12-04T00:49:21;2.00;99.90
8862;DHT22;4799;50.996;4.754;2023-12-04T00:51:47;2.00;99.90
8862;DHT22;4799;50.996;4.754;2023-12-04T00:54:13;2.00;99.90
8862;DHT22;4799;50.996;4.754;2023-12-04T00:56:39;1.90;99.90
8862;DHT22;4799;50.996;4.754;2023-12-04T00:59:06;2.00;99.90
8862;DHT22;4799;50.996;4.754;2023-12-04T01:01:32;1.90;99.90
8862;DHT22;4799;50.996;4.754;2023-12-04T01:03:58;2.00;99.90
8862;DHT22;4799;50.996;4.754;2023-12-04T01:06:25;2.00;99.90
8862;DHT22;4799;50.996;4.754;2023-12-04T01:08:53;2.00;99.90
8862;DHT22;4799;50.996;4.754;2023-12-04T01:11:18;2.00;99.90
8862;DHT22;4799;50.996;4.754;2023-12-04T01:13:47;2.00;99.90
8862;DHT22;4799;50.996;4.754;2023-12-04T01:16:13;2.00;99.90
8862;DHT22;4799;50.996;4.754;2023-12-04T01:18:40;2.00;99.90
8862;DHT22;4799;50.996;4.754;2023-12-04T01:21:07;2.00;99.90
8862;DHT22;4799;50.996;4.754;2023-12-04T01:23:34;1.90;99.90
8862;DHT22;4799;50.996;4.754;2023-12-04T01:26:01;1.90;99.90
8862;DHT22;4799;50.996;4.754;2023-12-04T01:28:26;1.90;99.90
8862;DHT22;4799;50.996;4.754;2023-12-04T01:30:52;1.90;99.90
8862;DHT22;4799;50.996;4.754;2023-12-04T01:33:18;1.90;99.90
8862;DHT22;4799;50.996;4.754;2023-12-04T01:35:43;1.90;99.90
8862;DHT22;4799;50.996;4.754;2023-12-04T01:38:09;1.90;99.90
8862;DHT22;4799;50.996;4.754;2023-12-04T01:40:35;1.90;99.90
8862;DHT22;4799;50.996;4.754;2023-12-04T01:43:01;1.90;99.90
8862;DHT22;4799;50.996;4.754;2023-12-04T01:45:27;1.90;99.90
8862;DHT22;4799;50.996;4.754;2023-12-04T01:47:53;1.90;99.90
8862;DHT22;4799;50.996;4.754;2023-12-04T01:50:19;1.90;99.90
8862;DHT22;4799;50.996;4.754;2023-12-04T01:52:46;1.90;99.90
8862;DHT22;4799;50.996;4.754;2023-12-04T01:55:12;1.90;99.90
8862;DHT22;4799;50.996;4.754;2023-12-04T01:57:39;1.90;99.90
8862;DHT22;4799;50.996;4.754;2023-12-04T02:00:05;1.90;99.90
8862;DHT22;4799;50.996;4.754;2023-12-04T02:02:40;1.80;99.90
8862;DHT22;4799;50.996;4.754;2023-12-04T02:05:07;1.90;99.90
8862;DHT22;4799;50.996;4.754;2023-12-04T02:07:34;1.90;99.90
8862;DHT22;4799;50.996;4.754;2023-12-04T02:10:01;1.90;99.90
8862;DHT22;4799;50.996;4.754;2023-12-04T02:12:27;1.90;99.90
8862;DHT22;4799;50.996;4.754;2023-12-04T02:14:52;1.90;99.90
8862;DHT22;4799;50.996;4.754;2023-12-04T02:17:18;1.90;99.90
8862;DHT22;4799;50.996;4.754;2023-12-04T02:19:45;1.90;99.90
8862;DHT22;4799;50.996;4.754;2023-12-04T02:22:11;1.90;99.90
8862;DHT22;4799;50.996;4.754;2023-12-04T02:24:36;1.90;99.90
8862;DHT22;4799;50.996;4.754;2023-12-04T02:27:23;1.90;99.90
8862;DHT22;4799;50.996;4.754;2023-12-04T02:29:59;1.90;99.90
8862;DHT22;4799;50.996;4.754;2023-12-04T02:32:28;2.00;99.90
8862;DHT22;4799;50.996;4.754;2023-12-04T02:34:55;2.00;99.90
8862;DHT22;4799;50.996;4.754;2023-12-04T02:37:22;2.00;99.90
8862;DHT22;4799;50.996;4.754;2023-12-04T02:39:49;2.00;99.90
8862;DHT22;4799;50.996;4.754;2023-12-04T02:42:18;2.00;99.90
8862;DHT22;4799;50.996;4.754;2023-12-04T02:44:44;2.10;99.90
8862;DHT22;4799;50.996;4.754;2023-12-04T02:47:11;2.10;99.90
8862;DHT22;4799;50.996;4.754;2023-12-04T02:49:37;2.10;99.90
8862;DHT22;4799;50.996;4.754;2023-12-04T02:52:03;2.10;99.90
8862;DHT22;4799;50.996;4.754;2023-12-04T02:54:29;2.10;99.90
8862;DHT22;4799;50.996;4.754;2023-12-04T02:56:54;2.20;99.90
8862;DHT22;4799;50.996;4.754;2023-12-04T02:59:20;2.20;99.90
8862;DHT22;4799;50.996;4.754;2023-12-04T03:01:46;2.20;99.90
8862;DHT22;4799;50.996;4.754;2023-12-04T03:04:11;2.20;99.90
8862;DHT22;4799;50.996;4.754;2023-12-04T03:06:37;2.20;99.90
8862;DHT22;4799;50.996;4.754;2023-12-04T03:09:03;2.20;99.90
8862;DHT22;4799;50.996;4.754;2023-12-04T03:11:30;2.20;99.90
8862;DHT22;4799;50.996;4.754;2023-12-04T03:13:56;2.20;99.90
8862;DHT22;4799;50.996;4.754;2023-12-04T03:16:22;2.20;99.90
8862;DHT22;4799;50.996;4.754;2023-12-04T03:18:48;2.20;99.90
8862;DHT22;4799;50.996;4.754;2023-12-04T03:21:13;2.20;99.90
8862;DHT22;4799;50.996;4.754;2023-12-04T03:23:39;2.20;99.90
8862;DHT22;4799;50.996;4.754;2023-12-04T03:26:05;2.30;99.90
8862;DHT22;4799;50.996;4.754;2023-12-04T03:28:31;2.20;99.90
8862;DHT22;4799;50.996;4.754;2023-12-04T03:30:56;2.30;99.90
8862;DHT22;4799;50.996;4.754;2023-12-04T03:33:22;2.20;99.90
8862;DHT22;4799;50.996;4.754;2023-12-04T03:35:48;2.20;99.90
8862;DHT22;4799;50.996;4.754;2023-12-04T03:38:13;2.20;99.90
8862;DHT22;4799;50.996;4.754;2023-12-04T03:40:39;2.20;99.90
8862;DHT22;4799;50.996;4.754;2023-12-04T03:43:05;2.20;99.90
8862;DHT22;4799;50.996;4.754;2023-12-04T03:45:30;2.20;99.90
8862;DHT22;4799;50.996;4.754;2023-12-04T03:47:56;2.20;99.90
8862;DHT22;4799;50.996;4.754;2023-12-04T03:50:22;2.20;99.90
8862;DHT22;4799;50.996;4.754;2023-12-04T03:52:48;2.20;99.90
8862;DHT22;4799;50.996;4.754;2023-12-04T03:55:14;2.20;99.90
8862;DHT22;4799;50.996;4.754;2023-12-04T03:57:39;2.20;99.90
8862;DHT22;4799;50.996;4.754;2023-12-04T04:00:05;2.20;99.90
8862;DHT22;4799;50.996;4.754;2023-12-04T04:02:31;2.20;99.90
8862;DHT22;4799;50.996;4.754;2023-12-04T04:04:57;2.20;99.90
8862;DHT22;4799;50.996;4.754;2023-12-04T04:07:23;2.20;99.90
8862;DHT22;4799;50.996;4.754;2023-12-04T04:09:48;2.20;99.90
8862;DHT22;4799;50.996;4.754;2023-12-04T04:12:14;2.20;99.90
8862;DHT22;4799;50.996;4.754;2023-12-04T04:14:40;2.20;99.90
8862;DHT22;4799;50.996;4.754;2023-12-04T04:17:05;2.20;99.90
8862;DHT22;4799;50.996;4.754;2023-12-04T04:19:31;2.20;99.90
8862;DHT22;4799;50.996;4.754;2023-12-04T04:21:57;2.20;99.90
8862;DHT22;4799;50.996;4.754;2023-12-04T04:24:22;2.20;99.90
8862;DHT22;4799;50.996;4.754;2023-12-04T04:26:48;2.10;99.90
8862;DHT22;4799;50.996;4.754;2023-12-04T04:29:14;2.10;99.90
8862;DHT22;4799;50.996;4.754;2023-12-04T04:31:39;2.20;99.90
8862;DHT22;4799;50.996;4.754;2023-12-04T04:34:05;2.20;99.90
8862;DHT22;4799;50.996;4.754;2023-12-04T04:36:31;2.10;99.90
8862;DHT22;4799;50.996;4.754;2023-12-04T04:38:57;2.20;99.90
8862;DHT22;4799;50.996;4.754;2023-12-04T04:41:22;2.20;99.90
8862;DHT22;4799;50.996;4.754;2023-12-04T04:43:48;2.20;99.90
8862;DHT22;4799;50.996;4.754;2023-12-04T04:46:14;2.20;99.90
8862;DHT22;4799;50.996;4.754;2023-12-04T04:48:40;2.20;99.90
8862;DHT22;4799;50.996;4.754;2023-12-04T04:51:06;2.20;99.90
8862;DHT22;4799;50.996;4.754;2023-12-04T04:53:32;2.20;99.90
8862;DHT22;4799;50.996;4.754;2023-12-04T04:55:58;2.20;99.90
8862;DHT22;4799;50.996;4.754;2023-12-04T04:58:23;2.20;99.90
8862;DHT22;4799;50.996;4.754;2023-12-04T05:00:49;2.20;99.90
8862;DHT22;4799;50.996;4.754;2023-12-04T05:03:15;2.30;99.90
8862;DHT22;4799;50.996;4.754;2023-12-04T05:05:41;2.30;99.90
8862;DHT22;4799;50.996;4.754;2023-12-04T05:08:06;2.30;99.90
8862;DHT22;4799;50.996;4.754;2023-12-04T05:10:32;2.30;99.90
8862;DHT22;4799;50.996;4.754;2023-12-04T05:12:58;2.30;99.90
8862;DHT22;4799;50.996;4.754;2023-12-04T05:15:24;2.30;99.90
8862;DHT22;4799;50.996;4.754;2023-12-04T05:17:51;2.30;99.90
8862;DHT22;4799;50.996;4.754;2023-12-04T05:20:17;2.30;99.90
8862;DHT22;4799;50.996;4.754;2023-12-04T05:22:42;2.30;99.90
8862;DHT22;4799;50.996;4.754;2023-12-04T05:25:08;2.30;99.90
8862;DHT22;4799;50.996;4.754;2023-12-04T05:27:34;2.40;99.90
8862;DHT22;4799;50.996;4.754;2023-12-04T05:29:59;2.30;99.90
8862;DHT22;4799;50.996;4.754;2023-12-04T05:32:25;2.30;99.90
8862;DHT22;4799;50.996;4.754;2023-12-04T05:34:51;2.40;99.90
8862;DHT22;4799;50.996;4.754;2023-12-04T05:37:16;2.40;99.90
8862;DHT22;4799;50.996;4.754;2023-12-04T05:39:42;2.40;99.90
8862;DHT22;4799;50.996;4.754;2023-12-04T05:42:08;2.40;99.90
8862;DHT22;4799;50.996;4.754;2023-12-04T05:44:34;2.40;99.90
8862;DHT22;4799;50.996;4.754;2023-12-04T05:47:00;2.40;99.90
8862;DHT22;4799;50.996;4.754;2023-12-04T05:49:26;2.40;99.90
8862;DHT22;4799;50.996;4.754;2023-12-04T05:51:52;2.40;99.90
8862;DHT22;4799;50.996;4.754;2023-12-04T05:54:17;2.40;99.90
8862;DHT22;4799;50.996;4.754;2023-12-04T05:56:43;2.40;99.90
8862;DHT22;4799;50.996;4.754;2023-12-04T05:59:09;2.50;99.90
8862;DHT22;4799;50.996;4.754;2023-12-04T06:01:35;2.40;99.90
8862;DHT22;4799;50.996;4.754;2023-12-04T06:04:00;2.40;99.90
8862;DHT22;4799;50.996;4.754;2023-12-04T06:06:26;2.50;99.90
8862;DHT22;4799;50.996;4.754;2023-12-04T06:08:52;2.40;99.90
8862;DHT22;4799;50.996;4.754;2023-12-04T06:11:18;2.50;99.90
8862;DHT22;4799;50.996;4.754;2023-12-04T06:13:44;2.50;99.90
8862;DHT22;4799;50.996;4.754;2023-12-04T06:16:10;2.50;99.90
8862;DHT22;4799;50.996;4.754;2023-12-04T06:18:35;2.50;99.90
8862;DHT22;4799;50.996;4.754;2023-12-04T06:21:01;2.50;99.90
8862;DHT22;4799;50.996;4.754;2023-12-04T06:23:27;2.50;99.90
8862;DHT22;4799;50.996;4.754;2023-12-04T06:25:53;2.50;99.90
8862;DHT22;4799;50.996;4.754;2023-12-04T06:28:19;2.50;99.90
8862;DHT22;4799;50.996;4.754;2023-12-04T06:30:45;2.50;99.90
8862;DHT22;4799;50.996;4.754;2023-12-04T06:33:11;2.50;99.90
8862;DHT22;4799;50.996;4.754;2023-12-04T06:35:38;2.50;99.90
8862;DHT22;4799;50.996;4.754;2023-12-04T06:38:07;2.50;99.90
8862;DHT22;4799;50.996;4.754;2023-12-04T06:40:33;2.50;99.90
8862;DHT22;4799;50.996;4.754;2023-12-04T06:42:59;2.60;99.90
8862;DHT22;4799;50.996;4.754;2023-12-04T06:45:26;2.60;99.90
8862;DHT22;4799;50.996;4.754;2023-12-04T06:47:53;2.60;99.90
8862;DHT22;4799;50.996;4.754;2023-12-04T06:50:19;2.60;99.90
8862;DHT22;4799;50.996;4.754;2023-12-04T06:52:45;2.60;99.90
8862;DHT22;4799;50.996;4.754;2023-12-04T06:55:12;2.60;99.90
8862;DHT22;4799;50.996;4.754;2023-12-04T06:57:38;2.70;99.90
8862;DHT22;4799;50.996;4.754;2023-12-04T07:00:04;2.70;99.90
8862;DHT22;4799;50.996;4.754;2023-12-04T07:02:32;2.70;99.90
8862;DHT22;4799;50.996;4.754;2023-12-04T07:04:57;2.80;99.90
8862;DHT22;4799;50.996;4.754;2023-12-04T07:07:23;2.80;99.90
8862;DHT22;4799;50.996;4.754;2023-12-04T07:09:49;2.80;99.90
8862;DHT22;4799;50.996;4.754;2023-12-04T07:12:14;2.90;99.90
8862;DHT22;4799;50.996;4.754;2023-12-04T07:14:40;2.90;99.90
8862;DHT22;4799;50.996;4.754;2023-12-04T07:17:07;2.90;99.90
8862;DHT22;4799;50.996;4.754;2023-12-04T07:19:33;2.90;99.90
8862;DHT22;4799;50.996;4.754;2023-12-04T07:21:58;2.90;99.90
8862;DHT22;4799;50.996;4.754;2023-12-04T07:24:24;2.90;99.90
8862;DHT22;4799;50.996;4.754;2023-12-04T07:26:52;3.00;99.90
8862;DHT22;4799;50.996;4.754;2023-12-04T07:29:18;3.00;99.90
8862;DHT22;4799;50.996;4.754;2023-12-04T07:31:44;3.00;99.90
8862;DHT22;4799;50.996;4.754;2023-12-04T07:34:10;3.00;99.90
8862;DHT22;4799;50.996;4.754;2023-12-04T07:36:35;3.10;99.90
8862;DHT22;4799;50.996;4.754;2023-12-04T07:39:01;3.10;99.90
8862;DHT22;4799;50.996;4.754;2023-12-04T07:41:27;3.00;99.90
8862;DHT22;4799;50.996;4.754;2023-12-04T07:43:53;3.00;99.90
8862;DHT22;4799;50.996;4.754;2023-12-04T07:46:20;3.10;99.90
8862;DHT22;4799;50.996;4.754;2023-12-04T07:48:45;3.10;99.90
8862;DHT22;4799;50.996;4.754;2023-12-04T07:51:11;3.10;99.90
8862;DHT22;4799;50.996;4.754;2023-12-04T07:53:37;3.10;99.90
8862;DHT22;4799;50.996;4.754;2023-12-04T07:56:03;3.10;99.90
8862;DHT22;4799;50.996;4.754;2023-12-04T07:58:30;3.10;99.90
8862;DHT22;4799;50.996;4.754;2023-12-04T08:00:57;3.10;99.90
8862;DHT22;4799;50.996;4.754;2023-12-04T08:03:23;3.10;99.90
8862;DHT22;4799;50.996;4.754;2023-12-04T08:05:51;3.10;99.90
8862;DHT22;4799;50.996;4.754;2023-12-04T08:08:17;3.20;99.90
8862;DHT22;4799;50.996;4.754;2023-12-04T08:10:43;3.20;99.90
8862;DHT22;4799;50.996;4.754;2023-12-04T08:13:08;3.20;99.90
8862;DHT22;4799;50.996;4.754;2023-12-04T08:15:34;3.20;99.90
8862;DHT22;4799;50.996;4.754;2023-12-04T08:18:00;3.20;99.90
8862;DHT22;4799;50.996;4.754;2023-12-04T08:20:26;3.20;99.90
8862;DHT22;4799;50.996;4.754;2023-12-04T08:22:52;3.30;99.90
8862;DHT22;4799;50.996;4.754;2023-12-04T08:25:18;3.30;99.90
8862;DHT22;4799;50.996;4.754;2023-12-04T08:27:43;3.30;99.90
8862;DHT22;4799;50.996;4.754;2023-12-04T08:30:09;3.30;99.90
8862;DHT22;4799;50.996;4.754;2023-12-04T08:32:35;3.30;99.90
8862;DHT22;4799;50.996;4.754;2023-12-04T08:35:01;3.40;99.90
8862;DHT22;4799;50.996;4.754;2023-12-04T08:37:27;3.40;99.90
8862;DHT22;4799;50.996;4.754;2023-12-04T08:39:52;3.40;99.90
8862;DHT22;4799;50.996;4.754;2023-12-04T08:42:19;3.40;99.90
8862;DHT22;4799;50.996;4.754;2023-12-04T08:44:44;3.50;99.90
8862;DHT22;4799;50.996;4.754;2023-12-04T08:47:13;3.50;99.90
8862;DHT22;4799;50.996;4.754;2023-12-04T08:49:40;3.50;99.90
8862;DHT22;4799;50.996;4.754;2023-12-04T08:52:06;3.50;99.90
8862;DHT22;4799;50.996;4.754;2023-12-04T08:54:32;3.60;99.90
8862;DHT22;4799;50.996;4.754;2023-12-04T08:56:58;3.60;99.90
8862;DHT22;4799;50.996;4.754;2023-12-04T08:59:24;3.60;99.90
8862;DHT22;4799;50.996;4.754;2023-12-04T09:01:49;3.60;99.90
8862;DHT22;4799;50.996;4.754;2023-12-04T09:04:15;3.60;99.90
8862;DHT22;4799;50.996;4.754;2023-12-04T09:06:41;3.70;99.90
8862;DHT22;4799;50.996;4.754;2023-12-04T09:09:06;3.70;99.90
8862;DHT22;4799;50.996;4.754;2023-12-04T09:11:33;3.80;99.90
8862;DHT22;4799;50.996;4.754;2023-12-04T09:13:59;3.80;99.90
8862;DHT22;4799;50.996;4.754;2023-12-04T09:16:24;3.80;99.90
8862;DHT22;4799;50.996;4.754;2023-12-04T09:18:50;3.90;99.90
8862;DHT22;4799;50.996;4.754;2023-12-04T09:21:16;3.80;99.90
8862;DHT22;4799;50.996;4.754;2023-12-04T09:23:42;3.80;99.90
8862;DHT22;4799;50.996;4.754;2023-12-04T09:26:08;3.90;99.90
8862;DHT22;4799;50.996;4.754;2023-12-04T09:28:35;3.90;99.90
8862;DHT22;4799;50.996;4.754;2023-12-04T09:31:02;3.90;99.90
8862;DHT22;4799;50.996;4.754;2023-12-04T09:33:28;3.80;99.90
8862;DHT22;4799;50.996;4.754;2023-12-04T09:35:53;3.80;99.90
8862;DHT22;4799;50.996;4.754;2023-12-04T09:38:19;3.80;99.90
8862;DHT22;4799;50.996;4.754;2023-12-04T09:40:45;3.80;99.90
8862;DHT22;4799;50.996;4.754;2023-12-04T09:43:11;3.80;99.90
8862;DHT22;4799;50.996;4.754;2023-12-04T09:45:39;3.80;99.90
8862;DHT22;4799;50.996;4.754;2023-12-04T09:48:06;3.80;99.90
8862;DHT22;4799;50.996;4.754;2023-12-04T09:50:32;3.80;99.90
8862;DHT22;4799;50.996;4.754;2023-12-04T09:52:59;3.90;99.90
8862;DHT22;4799;50.996;4.754;2023-12-04T09:55:25;3.90;99.90
8862;DHT22;4799;50.996;4.754;2023-12-04T09:57:51;3.90;99.90
8862;DHT22;4799;50.996;4.754;2023-12-04T10:00:17;3.90;99.90
8862;DHT22;4799;50.996;4.754;2023-12-04T10:02:46;3.90;99.90
8862;DHT22;4799;50.996;4.754;2023-12-04T10:05:12;3.80;99.90
8862;DHT22;4799;50.996;4.754;2023-12-04T10:07:39;3.80;99.90
8862;DHT22;4799;50.996;4.754;2023-12-04T10:10:05;3.90;99.90
8862;DHT22;4799;50.996;4.754;2023-12-04T10:12:32;3.90;99.90
8862;DHT22;4799;50.996;4.754;2023-12-04T10:15:10;3.90;99.90
8862;DHT22;4799;50.996;4.754;2023-12-04T10:17:41;4.00;99.90
8862;DHT22;4799;50.996;4.754;2023-12-04T10:22:56;4.00;99.90
8862;DHT22;4799;50.996;4.754;2023-12-04T10:25:23;4.10;99.90
8862;DHT22;4799;50.996;4.754;2023-12-04T10:27:51;4.20;99.90
8862;DHT22;4799;50.996;4.754;2023-12-04T10:30:29;4.20;99.90
8862;DHT22;4799;50.996;4.754;2023-12-04T10:33:04;4.20;99.90
8862;DHT22;4799;50.996;4.754;2023-12-04T10:35:31;4.30;99.90
8862;DHT22;4799;50.996;4.754;2023-12-04T10:37:58;4.30;99.90
8862;DHT22;4799;50.996;4.754;2023-12-04T10:40:26;4.30;99.90
8862;DHT22;4799;50.996;4.754;2023-12-04T10:43:19;4.40;99.90
8862;DHT22;4799;50.996;4.754;2023-12-04T10:45:46;4.30;99.90
8862;DHT22;4799;50.996;4.754;2023-12-04T10:48:14;4.40;99.90
8862;DHT22;4799;50.996;4.754;2023-12-04T10:50:43;4.50;99.90
8862;DHT22;4799;50.996;4.754;2023-12-04T10:53:12;4.50;99.90
8862;DHT22;4799;50.996;4.754;2023-12-04T10:55:39;4.60;99.90
8862;DHT22;4799;50.996;4.754;2023-12-04T10:58:13;4.60;99.90
8862;DHT22;4799;50.996;4.754;2023-12-04T11:00:50;4.70;99.90
8862;DHT22;4799;50.996;4.754;2023-12-04T11:03:31;4.70;99.90
8862;DHT22;4799;50.996;4.754;2023-12-04T11:06:02;4.80;99.90
8862;DHT22;4799;50.996;4.754;2023-12-04T11:08:33;4.80;99.90
8862;DHT22;4799;50.996;4.754;2023-12-04T11:11:04;4.90;99.90
8862;DHT22;4799;50.996;4.754;2023-12-04T11:13:35;4.90;99.90
8862;DHT22;4799;50.996;4.754;2023-12-04T11:16:15;4.90;99.90
8862;DHT22;4799;50.996;4.754;2023-12-04T11:18:44;4.80;99.90
8862;DHT22;4799;50.996;4.754;2023-12-04T11:21:13;4.90;99.90
8862;DHT22;4799;50.996;4.754;2023-12-04T11:23:41;4.90;99.90
8862;DHT22;4799;50.996;4.754;2023-12-04T11:26:09;4.90;99.90
8862;DHT22;4799;50.996;4.754;2023-12-04T11:28:36;4.80;99.90
8862;DHT22;4799;50.996;4.754;2023-12-04T11:31:05;4.80;99.90
8862;DHT22;4799;50.996;4.754;2023-12-04T11:33:37;4.70;99.90
8862;DHT22;4799;50.996;4.754;2023-12-04T11:36:11;4.70;99.90
8862;DHT22;4799;50.996;4.754;2023-12-04T11:38:39;4.70;99.90
8862;DHT22;4799;50.996;4.754;2023-12-04T11:41:19;4.80;99.90
8862;DHT22;4799;50.996;4.754;2023-12-04T11:43:46;4.80;99.90
8862;DHT22;4799;50.996;4.754;2023-12-04T11:46:25;4.80;99.90
8862;DHT22;4799;50.996;4.754;2023-12-04T11:48:54;4.80;99.90
8862;DHT22;4799;50.996;4.754;2023-12-04T11:54:07;4.80;99.90
8862;DHT22;4799;50.996;4.754;2023-12-04T11:56:33;4.90;99.90
8862;DHT22;4799;50.996;4.754;2023-12-04T11:59:07;4.80;99.90
8862;DHT22;4799;50.996;4.754;2023-12-04T12:01:37;4.80;99.90
8862;DHT22;4799;50.996;4.754;2023-12-04T12:04:06;4.70;99.90
8862;DHT22;4799;50.996;4.754;2023-12-04T12:06:32;4.70;99.90
8862;DHT22;4799;50.996;4.754;2023-12-04T12:08:58;4.70;99.90
8862;DHT22;4799;50.996;4.754;2023-12-04T12:11:24;4.60;99.90
8862;DHT22;4799;50.996;4.754;2023-12-04T12:13:53;4.60;99.90
8862;DHT22;4799;50.996;4.754;2023-12-04T12:16:19;4.60;99.90
8862;DHT22;4799;50.996;4.754;2023-12-04T12:18:44;4.60;99.90
8862;DHT22;4799;50.996;4.754;2023-12-04T12:21:10;4.60;99.90
8862;DHT22;4799;50.996;4.754;2023-12-04T12:23:36;4.70;99.90
8862;DHT22;4799;50.996;4.754;2023-12-04T12:26:02;4.70;99.90
8862;DHT22;4799;50.996;4.754;2023-12-04T12:28:31;4.80;99.90
8862;DHT22;4799;50.996;4.754;2023-12-04T12:31:00;4.70;99.90
8862;DHT22;4799;50.996;4.754;2023-12-04T12:33:26;4.70;99.90
8862;DHT22;4799;50.996;4.754;2023-12-04T12:35:52;4.70;99.90
8862;DHT22;4799;50.996;4.754;2023-12-04T12:38:18;4.60;99.90
8862;DHT22;4799;50.996;4.754;2023-12-04T12:40:44;4.60;99.90
8862;DHT22;4799;50.996;4.754;2023-12-04T12:43:10;4.60;99.90
8862;DHT22;4799;50.996;4.754;2023-12-04T12:45:43;4.50;99.90
8862;DHT22;4799;50.996;4.754;2023-12-04T12:48:16;4.50;99.90
8862;DHT22;4799;50.996;4.754;2023-12-04T12:50:46;4.50;99.90
8862;DHT22;4799;50.996;4.754;2023-12-04T12:53:13;4.40;99.90
8862;DHT22;4799;50.996;4.754;2023-12-04T12:55:42;4.40;99.90
8862;DHT22;4799;50.996;4.754;2023-12-04T12:58:12;4.40;99.90
8862;DHT22;4799;50.996;4.754;2023-12-04T13:00:42;4.50;99.90
8862;DHT22;4799;50.996;4.754;2023-12-04T13:03:15;4.40;99.90
8862;DHT22;4799;50.996;4.754;2023-12-04T13:05:41;4.40;99.90
8862;DHT22;4799;50.996;4.754;2023-12-04T13:08:07;4.40;99.90
8862;DHT22;4799;50.996;4.754;2023-12-04T13:10:33;4.40;99.90
8862;DHT22;4799;50.996;4.754;2023-12-04T13:12:58;4.40;99.90
8862;DHT22;4799;50.996;4.754;2023-12-04T13:15:26;4.40;99.90
8862;DHT22;4799;50.996;4.754;2023-12-04T13:17:51;4.30;99.90
8862;DHT22;4799;50.996;4.754;2023-12-04T13:20:17;4.30;99.90
8862;DHT22;4799;50.996;4.754;2023-12-04T13:22:43;4.30;99.90
8862;DHT22;4799;50.996;4.754;2023-12-04T13:25:10;4.20;99.90
8862;DHT22;4799;50.996;4.754;2023-12-04T13:27:39;4.20;99.90
8862;DHT22;4799;50.996;4.754;2023-12-04T13:30:08;4.20;99.90
8862;DHT22;4799;50.996;4.754;2023-12-04T13:32:40;4.20;99.90
8862;DHT22;4799;50.996;4.754;2023-12-04T13:35:06;4.20;99.90
8862;DHT22;4799;50.996;4.754;2023-12-04T13:37:36;4.20;99.90
8862;DHT22;4799;50.996;4.754;2023-12-04T13:40:04;4.20;99.90
8862;DHT22;4799;50.996;4.754;2023-12-04T13:42:35;4.10;99.90
8862;DHT22;4799;50.996;4.754;2023-12-04T13:45:19;4.10;99.90
8862;DHT22;4799;50.996;4.754;2023-12-04T13:47:49;4.10;99.90
8862;DHT22;4799;50.996;4.754;2023-12-04T13:50:16;4.10;99.90
8862;DHT22;4799;50.996;4.754;2023-12-04T13:52:42;4.10;99.90
8862;DHT22;4799;50.996;4.754;2023-12-04T13:55:11;4.10;99.90
8862;DHT22;4799;50.996;4.754;2023-12-04T13:57:45;4.00;99.90
8862;DHT22;4799;50.996;4.754;2023-12-04T14:00:35;4.10;99.90
8862;DHT22;4799;50.996;4.754;2023-12-04T14:03:01;4.00;99.90
8862;DHT22;4799;50.996;4.754;2023-12-04T14:05:31;4.00;99.90
8862;DHT22;4799;50.996;4.754;2023-12-04T14:07:56;4.00;99.90
8862;DHT22;4799;50.996;4.754;2023-12-04T14:10:27;4.00;99.90
8862;DHT22;4799;50.996;4.754;2023-12-04T14:12:54;4.00;99.90
8862;DHT22;4799;50.996;4.754;2023-12-04T14:15:20;4.00;99.90
8862;DHT22;4799;50.996;4.754;2023-12-04T14:17:46;4.00;99.90
8862;DHT22;4799;50.996;4.754;2023-12-04T14:20:14;3.90;99.90
8862;DHT22;4799;50.996;4.754;2023-12-04T14:22:44;4.00;99.90
8862;DHT22;4799;50.996;4.754;2023-12-04T14:25:10;3.90;99.90
8862;DHT22;4799;50.996;4.754;2023-12-04T14:27:36;4.00;99.90
8862;DHT22;4799;50.996;4.754;2023-12-04T14:30:09;4.00;99.90
8862;DHT22;4799;50.996;4.754;2023-12-04T14:32:35;4.00;99.90
8862;DHT22;4799;50.996;4.754;2023-12-04T14:35:02;3.90;99.90
8862;DHT22;4799;50.996;4.754;2023-12-04T14:37:28;3.90;99.90
8862;DHT22;4799;50.996;4.754;2023-12-04T14:39:54;3.90;99.90
8862;DHT22;4799;50.996;4.754;2023-12-04T14:42:19;3.90;99.90
8862;DHT22;4799;50.996;4.754;2023-12-04T14:44:45;3.90;99.90
8862;DHT22;4799;50.996;4.754;2023-12-04T14:47:11;3.90;99.90
8862;DHT22;4799;50.996;4.754;2023-12-04T14:49:37;3.90;99.90
8862;DHT22;4799;50.996;4.754;2023-12-04T14:52:03;3.90;99.90
8862;DHT22;4799;50.996;4.754;2023-12-04T14:54:31;3.90;99.90
8862;DHT22;4799;50.996;4.754;2023-12-04T14:57:20;3.90;99.90
8862;DHT22;4799;50.996;4.754;2023-12-04T15:00:09;3.90;99.90
8862;DHT22;4799;50.996;4.754;2023-12-04T15:02:36;3.90;99.90
8862;DHT22;4799;50.996;4.754;2023-12-04T15:05:10;4.00;99.90
8862;DHT22;4799;50.996;4.754;2023-12-04T15:07:54;3.90;99.90
8862;DHT22;4799;50.996;4.754;2023-12-04T15:10:20;3.90;99.90
8862;DHT22;4799;50.996;4.754;2023-12-04T15:12:51;4.00;99.90
8862;DHT22;4799;50.996;4.754;2023-12-04T15:15:26;3.90;99.90
8862;DHT22;4799;50.996;4.754;2023-12-04T15:18:05;4.00;99.90
8862;DHT22;4799;50.996;4.754;2023-12-04T15:20:49;3.90;99.90
8862;DHT22;4799;50.996;4.754;2023-12-04T15:23:15;3.90;99.90
8862;DHT22;4799;50.996;4.754;2023-12-04T15:25:44;3.90;99.90
8862;DHT22;4799;50.996;4.754;2023-12-04T15:28:10;3.90;99.90
8862;DHT22;4799;50.996;4.754;2023-12-04T15:30:39;3.90;99.90
8862;DHT22;4799;50.996;4.754;2023-12-04T15:33:05;3.90;99.90
8862;DHT22;4799;50.996;4.754;2023-12-04T15:35:31;3.90;99.90
8862;DHT22;4799;50.996;4.754;2023-12-04T15:37:57;3.90;99.90
8862;DHT22;4799;50.996;4.754;2023-12-04T15:40:22;3.90;99.90
8862;DHT22;4799;50.996;4.754;2023-12-04T15:42:48;3.90;99.90
8862;DHT22;4799;50.996;4.754;2023-12-04T15:45:14;3.90;99.90
8862;DHT22;4799;50.996;4.754;2023-12-04T15:47:39;3.90;99.90
8862;DHT22;4799;50.996;4.754;2023-12-04T15:50:06;3.90;99.90
8862;DHT22;4799;50.996;4.754;2023-12-04T15:52:33;3.90;99.90
8862;DHT22;4799;50.996;4.754;2023-12-04T15:55:04;4.00;99.90
8862;DHT22;4799;50.996;4.754;2023-12-04T15:57:30;4.00;99.90
8862;DHT22;4799;50.996;4.754;2023-12-04T15:59:55;4.00;99.90
8862;DHT22;4799;50.996;4.754;2023-12-04T16:02:21;4.00;99.90
8862;DHT22;4799;50.996;4.754;2023-12-04T16:04:47;4.00;99.90
8862;DHT22;4799;50.996;4.754;2023-12-04T16:07:12;4.00;99.90
8862;DHT22;4799;50.996;4.754;2023-12-04T16:09:38;4.00;99.90
8862;DHT22;4799;50.996;4.754;2023-12-04T16:12:04;4.00;99.90
8862;DHT22;4799;50.996;4.754;2023-12-04T16:14:30;4.00;99.90
8862;DHT22;4799;50.996;4.754;2023-12-04T16:16:56;4.00;99.90
8862;DHT22;4799;50.996;4.754;2023-12-04T16:19:22;4.10;99.90
8862;DHT22;4799;50.996;4.754;2023-12-04T16:21:48;4.00;99.90